Terminal Aerodrome Forecast
Issued by NWS El Paso, TX

Home | Current Version | Previous Version | Text Only | Print | Product List | Glossary On
Versions: 1 2 3 4 5 6 7 8 9 10 11 12 13 14 15 16 17 18
000
FTUS44 KEPZ 211700
TAFELP
TAF
KELP 211723Z 2118/2218 04005KT P6SM VCTS FEW040CB BKN080 BKN200
     FM212000 10008KT P6SM SCT050 BKN080
     FM212300 12007KT P6SM VCTS SCT050CB BKN080
     FM220600 07007KT P6SM VCSH BKN040 OVC080
     FM221700 09008KT P6SM VCTS SCT030CB SCT070 BKN200=

USA.gov is the U.S. government's official web portal to all federal, state and local government web resources and services.